Time;durP1;ratioP1;P1;durP2;ratioP2;P2;SDS_P1;SDS_P2;PMS_P1;PMS_P2;Temp;Humidity;BMP_temperature;BMP_pressure;BME280_temperature;BME280_humidity;BME280_pressure;Samples;Min_cycle;Max_cycle;Signal;HPM_P1;HPM_P2
2022/07/05 00:00:17;;;;;;;6.57;3.40;;;;;;;16.19;70.08;101947.09;4864626;29;20033;-73
2022/07/05 00:02:42;;;;;;;4.60;3.45;;;;;;;16.25;70.22;101940.69;4875252;29;20450;-75
2022/07/05 00:05:08;;;;;;;5.63;3.80;;;;;;;16.15;70.05;101946.72;4878315;29;20040;-73
2022/07/05 00:07:33;;;;;;;6.93;3.97;;;;;;;16.12;70.64;101945.31;4861713;29;20041;-74
2022/07/05 00:09:59;;;;;;;6.85;3.78;;;;;;;16.08;70.42;101949.56;4883807;29;20033;-75
2022/07/05 00:12:27;;;;;;;9.60;4.20;;;;;;;16.12;70.44;101942.59;4897167;29;20029;-74
2022/07/05 00:14:52;;;;;;;6.72;4.13;;;;;;;16.04;70.89;101934.72;4896908;29;20628;-75
2022/07/05 00:17:18;;;;;;;5.93;4.10;;;;;;;16.04;71.16;101939.34;4897150;29;20042;-74
2022/07/05 00:19:43;;;;;;;6.13;4.13;;;;;;;16.01;70.89;101935.19;4868577;29;20033;-75
2022/07/05 00:22:09;;;;;;;5.75;4.15;;;;;;;15.93;71.04;101928.19;4879847;29;20035;-73
2022/07/05 00:24:34;;;;;;;6.07;4.63;;;;;;;15.81;71.24;101935.50;4881825;29;20029;-75
2022/07/05 00:27:01;;;;;;;6.30;4.15;;;;;;;15.73;71.59;101936.66;4881295;29;20112;-74
2022/07/05 00:29:26;;;;;;;4.93;4.20;;;;;;;15.68;72.43;101931.03;4885665;29;20112;-76
2022/07/05 00:31:51;;;;;;;5.85;4.18;;;;;;;15.65;72.09;101934.22;4899868;29;20131;-73
2022/07/05 00:34:17;;;;;;;4.20;3.80;;;;;;;15.72;72.33;101942.34;4883230;29;20127;-75
2022/07/05 00:36:42;;;;;;;5.50;4.63;;;;;;;15.69;72.27;101938.19;4883434;29;20075;-73
2022/07/05 00:39:08;;;;;;;6.55;4.20;;;;;;;15.69;72.48;101935.44;4877057;29;20021;-73
2022/07/05 00:41:33;;;;;;;7.72;4.05;;;;;;;15.69;72.56;101932.72;4881201;29;20081;-75
2022/07/05 00:44:02;;;;;;;5.90;4.15;;;;;;;15.70;73.17;101939.00;4880941;29;20044;-74
2022/07/05 00:46:28;;;;;;;6.88;4.70;;;;;;;15.63;73.28;101930.91;4879951;29;20029;-74
2022/07/05 00:48:54;;;;;;;6.20;4.50;;;;;;;15.68;72.96;101925.59;4861295;29;20752;-73
2022/07/05 00:51:21;;;;;;;9.93;4.80;;;;;;;15.52;73.61;101926.25;4867903;29;20032;-74
2022/07/05 00:53:46;;;;;;;5.93;4.45;;;;;;;15.48;73.37;101930.53;4882840;29;20125;-75
2022/07/05 00:56:13;;;;;;;9.05;4.20;;;;;;;15.53;73.92;101936.09;4899570;29;20124;-74
2022/07/05 00:58:38;;;;;;;5.13;4.43;;;;;;;15.45;74.60;101930.97;4898443;29;20032;-73
2022/07/05 01:01:06;;;;;;;8.30;4.43;;;;;;;15.42;74.61;101938.53;4877400;29;20552;-73
2022/07/05 01:03:32;;;;;;;7.65;4.43;;;;;;;15.44;74.89;101937.50;4888826;29;20043;-73
2022/07/05 01:06:00;;;;;;;8.25;4.63;;;;;;;15.35;75.48;101932.38;4899549;29;20399;-74
2022/07/05 01:08:26;;;;;;;6.10;4.63;;;;;;;15.44;75.24;101930.13;4899722;29;20092;-75
2022/07/05 01:10:53;;;;;;;7.00;4.18;;;;;;;15.34;75.59;101933.44;4880713;29;20037;-75
2022/07/05 01:13:19;;;;;;;5.38;4.25;;;;;;;15.34;76.34;101930.69;4864771;29;20400;-73
2022/07/05 01:15:44;;;;;;;6.07;4.28;;;;;;;15.36;76.40;101931.28;4899329;29;20040;-74
2022/07/05 01:18:10;;;;;;;5.10;4.35;;;;;;;15.38;76.60;101926.44;4899452;29;20036;-75
2022/07/05 01:20:36;;;;;;;8.82;4.75;;;;;;;15.31;76.36;101936.63;4866342;29;20040;-73
2022/07/05 01:23:03;;;;;;;4.90;4.00;;;;;;;15.33;77.32;101937.19;4876552;29;20037;-73
2022/07/05 01:25:29;;;;;;;6.53;4.30;;;;;;;15.22;77.75;101938.00;4882530;29;20093;-74
2022/07/05 01:27:57;;;;;;;7.60;4.20;;;;;;;15.17;78.49;101940.56;4899369;29;20047;-75
2022/07/05 01:30:22;;;;;;;6.63;4.20;;;;;;;15.11;78.72;101938.75;4863351;29;20451;-76
2022/07/05 01:32:48;;;;;;;7.72;4.80;;;;;;;15.08;79.20;101931.84;4844522;29;20041;-75
2022/07/05 01:35:20;;;;;;;7.63;4.78;;;;;;;15.10;79.08;101939.81;4860143;29;20461;-74
2022/07/05 01:37:45;;;;;;;;;;;;;;;15.31;75.39;101942.06;4882504;29;20039;-73
2022/07/05 01:40:11;;;;;;;7.68;4.72;;;;;;;15.12;78.67;101937.69;4869396;29;20010;-74
2022/07/05 01:42:36;;;;;;;5.22;4.47;;;;;;;15.05;79.69;101935.88;4863337;29;20041;-74
2022/07/05 01:45:02;;;;;;;6.82;4.55;;;;;;;15.01;79.57;101942.84;4880079;29;20133;-74
2022/07/05 01:47:27;;;;;;;5.63;4.38;;;;;;;15.02;80.43;101939.06;4863457;29;20037;-75
2022/07/05 01:49:57;;;;;;;6.03;4.53;;;;;;;15.09;80.04;101938.97;4879355;29;20032;-73
2022/07/05 01:52:24;;;;;;;6.88;4.50;;;;;;;15.04;79.72;101936.94;4863169;29;20044;-73
2022/07/05 01:54:49;;;;;;;5.60;4.32;;;;;;;14.79;80.87;101933.47;4863451;29;20033;-73
2022/07/05 01:57:15;;;;;;;8.55;4.50;;;;;;;14.85;80.78;101933.38;4879614;29;20048;-75
2022/07/05 01:59:41;;;;;;;6.07;4.32;;;;;;;14.86;81.40;101931.50;4874989;29;20097;-74
2022/07/05 02:02:08;;;;;;;4.40;4.00;;;;;;;14.69;82.13;101923.94;4875231;29;20057;-76
2022/07/05 02:04:35;;;;;;;7.78;4.53;;;;;;;14.75;81.53;101929.53;4880015;29;20041;-75
2022/07/05 02:07:07;;;;;;;5.53;4.28;;;;;;;14.77;82.16;101935.59;4863123;29;20077;-75
2022/07/05 02:09:33;;;;;;;8.63;4.47;;;;;;;14.70;81.70;101931.06;4878773;29;20044;-74
2022/07/05 02:11:58;;;;;;;6.20;4.50;;;;;;;14.72;82.09;101925.38;4879917;29;20044;-75
2022/07/05 02:14:23;;;;;;;6.63;4.43;;;;;;;14.70;83.64;101919.31;4862915;29;20044;-75
2022/07/05 02:16:49;;;;;;;5.68;4.53;;;;;;;14.74;82.73;101927.88;4863012;29;20029;-74
2022/07/05 02:19:14;;;;;;;5.30;4.40;;;;;;;14.76;81.51;101917.56;4878806;29;20045;-74
2022/07/05 02:21:40;;;;;;;4.55;4.15;;;;;;;14.73;82.47;101923.47;4864004;29;20553;-75
2022/07/05 02:24:06;;;;;;;5.65;4.30;;;;;;;14.67;83.22;101928.78;4860714;29;20525;-73
2022/07/05 02:26:31;;;;;;;7.15;4.20;;;;;;;14.64;83.29;101926.47;4861595;29;20029;-73
2022/07/05 02:28:57;;;;;;;7.00;4.50;;;;;;;14.63;81.93;101916.66;4852808;29;20172;-73
2022/07/05 02:31:22;;;;;;;7.50;4.50;;;;;;;14.69;81.44;101929.38;4879108;29;20060;-78
2022/07/05 02:33:47;;;;;;;6.07;4.72;;;;;;;14.68;81.10;101932.34;4862814;29;20096;-78
2022/07/05 02:36:13;;;;;;;9.07;4.97;;;;;;;14.58;81.67;101930.06;4879345;29;20117;-72
2022/07/05 02:38:40;;;;;;;7.25;5.10;;;;;;;14.61;81.54;101926.94;4877345;29;20418;-73
2022/07/05 02:41:07;;;;;;;6.30;4.68;;;;;;;14.64;82.00;101928.38;4878419;29;20044;-72
2022/07/05 02:43:36;;;;;;;5.05;4.55;;;;;;;14.58;82.45;101927.34;4877672;29;20033;-71
2022/07/05 02:46:02;;;;;;;7.15;4.50;;;;;;;14.60;81.14;101930.72;4879004;29;20029;-72
2022/07/05 02:48:27;;;;;;;8.10;5.18;;;;;;;14.57;81.28;101935.75;4860447;29;20481;-70
2022/07/05 02:50:52;;;;;;;9.18;5.53;;;;;;;14.58;81.69;101935.53;4878930;29;20108;-71
2022/07/05 02:53:18;;;;;;;7.28;5.55;;;;;;;14.51;81.22;101938.34;4878763;29;20116;-72
2022/07/05 02:55:43;;;;;;;7.90;5.50;;;;;;;14.46;82.00;101935.47;4862442;29;20025;-72
2022/07/05 02:58:08;;;;;;;10.15;6.03;;;;;;;14.40;82.25;101944.50;4861293;29;20032;-72
2022/07/05 03:00:34;;;;;;;9.52;6.00;;;;;;;14.30;82.93;101936.84;4877182;29;20033;-71
2022/07/05 03:02:59;;;;;;;7.10;5.65;;;;;;;14.33;82.57;101941.03;4878761;29;20097;-72
2022/07/05 03:05:25;;;;;;;8.23;5.53;;;;;;;14.23;82.45;101935.25;4877310;29;20044;-71
2022/07/05 03:07:50;;;;;;;8.68;5.70;;;;;;;14.15;83.12;101944.53;4878976;29;20081;-72
2022/07/05 03:10:15;;;;;;;11.85;5.63;;;;;;;14.02;85.16;101947.34;4875348;29;20041;-71
2022/07/05 03:12:41;;;;;;;7.22;5.50;;;;;;;13.95;86.52;101947.38;4859191;29;20029;-71
2022/07/05 03:15:07;;;;;;;7.95;5.70;;;;;;;13.81;87.20;101954.81;4860215;29;20113;-72
2022/07/05 03:17:32;;;;;;;8.00;5.57;;;;;;;13.70;88.33;101958.25;4843718;29;20034;-71
2022/07/05 03:19:57;;;;;;;10.75;5.63;;;;;;;13.86;87.90;101954.16;4876851;29;20537;-72
2022/07/05 03:22:23;;;;;;;8.60;5.90;;;;;;;13.95;87.49;101952.81;4878602;29;20449;-72
2022/07/05 03:24:48;;;;;;;9.68;6.18;;;;;;;13.88;87.49;101961.06;4862134;29;20029;-71
2022/07/05 03:27:13;;;;;;;8.07;5.63;;;;;;;13.97;86.56;101964.34;4886690;29;20033;-71
2022/07/05 03:29:38;;;;;;;7.20;5.85;;;;;;;13.94;86.11;101960.16;4881536;29;20044;-72
2022/07/05 03:32:04;;;;;;;9.23;5.70;;;;;;;14.02;86.39;101963.69;4878679;29;20065;-72
2022/07/05 03:34:29;;;;;;;7.43;5.75;;;;;;;13.99;86.42;101957.63;4861804;29;20036;-72
2022/07/05 03:36:55;;;;;;;9.43;5.10;;;;;;;14.08;85.27;101960.06;4879019;29;20025;-72
2022/07/05 03:39:20;;;;;;;9.50;5.93;;;;;;;13.96;86.63;101959.94;4877497;29;20067;-71
2022/07/05 03:41:45;;;;;;;7.13;5.78;;;;;;;13.95;86.83;101961.00;4861393;29;20039;-72
2022/07/05 03:44:10;;;;;;;10.43;5.90;;;;;;;13.94;86.88;101968.34;4878435;29;20109;-71
2022/07/05 03:46:36;;;;;;;7.10;5.95;;;;;;;13.93;87.38;101963.13;4878631;29;20040;-71
2022/07/05 03:49:01;;;;;;;8.40;5.55;;;;;;;13.96;87.25;101970.84;4878262;29;20033;-72
2022/07/05 03:51:26;;;;;;;8.57;5.80;;;;;;;13.80;86.73;101969.50;4897007;29;20119;-71
2022/07/05 03:53:52;;;;;;;9.80;6.00;;;;;;;13.80;87.87;101970.31;4896977;29;20028;-71
2022/07/05 03:56:19;;;;;;;11.40;5.82;;;;;;;13.80;88.26;101972.22;4878780;29;20033;-71
2022/07/05 03:58:47;;;;;;;9.70;5.60;;;;;;;13.93;88.32;101980.25;4865513;29;20049;-70
2022/07/05 04:01:12;;;;;;;9.63;6.15;;;;;;;13.96;87.03;101973.56;4879733;29;20532;-73
2022/07/05 04:03:37;;;;;;;6.47;5.72;;;;;;;14.03;87.18;101979.78;4882151;29;20116;-72
2022/07/05 04:06:03;;;;;;;8.65;6.45;;;;;;;14.08;86.68;101973.69;4898478;29;20041;-71
2022/07/05 04:08:28;;;;;;;8.38;6.43;;;;;;;14.07;86.14;101974.72;4881816;29;20037;-71
2022/07/05 04:10:53;;;;;;;10.32;6.55;;;;;;;14.07;86.03;101988.34;4881740;29;20029;-71
2022/07/05 04:13:19;;;;;;;7.65;6.47;;;;;;;14.07;86.25;101997.34;4890933;29;20044;-71
2022/07/05 04:15:44;;;;;;;14.13;7.25;;;;;;;14.05;86.49;101991.28;4900604;29;20048;-72
2022/07/05 04:18:09;;;;;;;9.15;6.45;;;;;;;14.04;87.67;101988.78;4867653;29;20044;-73
2022/07/05 04:20:35;;;;;;;9.77;7.00;;;;;;;14.16;86.88;101992.44;4881573;29;20034;-71
2022/07/05 04:23:00;;;;;;;9.35;6.80;;;;;;;14.20;86.32;101985.53;4881882;29;20036;-73
2022/07/05 04:25:25;;;;;;;8.70;7.43;;;;;;;14.20;86.72;101990.97;4894823;29;20041;-71
2022/07/05 04:27:53;;;;;;;8.68;7.57;;;;;;;14.22;86.80;101979.84;4887073;29;20037;-71
2022/07/05 04:30:22;;;;;;;10.13;8.00;;;;;;;14.21;89.71;101983.66;4881112;29;20061;-72
2022/07/05 04:32:48;;;;;;;8.80;7.65;;;;;;;14.30;87.50;101985.88;4864836;29;20045;-72
2022/07/05 04:35:14;;;;;;;10.10;7.82;;;;;;;14.31;88.08;101992.13;4864374;29;20513;-72
2022/07/05 04:37:40;;;;;;;9.25;7.68;;;;;;;14.39;90.63;101982.84;4863984;29;20048;-73
2022/07/05 04:40:08;;;;;;;8.38;7.43;;;;;;;14.44;90.65;101985.75;4881529;29;20041;-72
2022/07/05 04:42:33;;;;;;;12.68;8.15;;;;;;;14.43;89.68;101984.06;4880903;29;20041;-72
2022/07/05 04:44:59;;;;;;;12.18;8.60;;;;;;;14.52;89.02;101982.72;4881408;29;20036;-71
2022/07/05 04:47:27;;;;;;;12.57;8.75;;;;;;;14.59;90.29;101986.25;4884302;29;20112;-72
2022/07/05 04:49:54;;;;;;;16.70;8.82;;;;;;;14.69;87.96;101993.94;4899798;29;20033;-73
2022/07/05 04:52:19;;;;;;;10.20;8.32;;;;;;;14.77;89.23;101985.47;4899560;29;20396;-72
2022/07/05 04:54:44;;;;;;;13.05;8.57;;;;;;;14.80;88.21;101982.28;4883125;29;20029;-72
2022/07/05 04:57:10;;;;;;;13.70;8.63;;;;;;;14.85;87.67;101987.88;4892281;29;20033;-73
2022/07/05 04:59:35;;;;;;;13.20;8.13;;;;;;;14.90;86.17;101981.78;4881127;29;20101;-71
2022/07/05 05:02:00;;;;;;;13.70;8.32;;;;;;;14.95;85.52;101992.00;4878677;29;20032;-72
2022/07/05 05:04:26;;;;;;;15.27;8.82;;;;;;;14.96;84.09;101991.78;4886851;29;20041;-71
2022/07/05 05:06:51;;;;;;;9.57;8.23;;;;;;;15.02;84.33;101984.56;4894991;29;20087;-72
2022/07/05 05:09:16;;;;;;;12.70;8.50;;;;;;;15.08;85.30;101983.66;4879700;29;20037;-71
2022/07/05 05:11:42;;;;;;;12.35;8.02;;;;;;;15.11;84.51;101977.75;4880906;29;20044;-73
2022/07/05 05:14:07;;;;;;;10.65;7.97;;;;;;;15.17;84.43;101981.47;4880903;29;20044;-72
2022/07/05 05:16:32;;;;;;;12.15;8.63;;;;;;;15.26;83.99;101992.91;4879810;29;20041;-72
2022/07/05 05:18:57;;;;;;;13.15;8.38;;;;;;;15.27;82.81;101989.94;4880846;29;20068;-72
2022/07/05 05:21:23;;;;;;;10.07;8.20;;;;;;;15.31;85.02;101991.16;4880560;29;20393;-72
2022/07/05 05:23:48;;;;;;;9.30;7.72;;;;;;;15.36;85.26;101994.00;4883099;29;20036;-71
2022/07/05 05:26:14;;;;;;;10.43;8.00;;;;;;;15.38;84.90;102000.09;4899176;29;20677;-73
2022/07/05 05:28:39;;;;;;;9.93;7.18;;;;;;;15.34;81.67;102001.59;4881165;29;20445;-72
2022/07/05 05:31:05;;;;;;;10.98;7.80;;;;;;;15.34;81.05;102007.06;4888032;29;20469;-71
2022/07/05 05:33:30;;;;;;;10.73;7.70;;;;;;;15.37;81.67;102000.31;4898929;29;20465;-73
2022/07/05 05:35:56;;;;;;;11.55;8.30;;;;;;;15.42;81.50;102001.28;4899233;29;20025;-73
2022/07/05 05:38:21;;;;;;;11.25;8.43;;;;;;;15.44;80.79;102011.97;4866598;29;20484;-71
2022/07/05 05:40:46;;;;;;;12.18;8.10;;;;;;;15.49;80.05;102014.00;4876248;29;20037;-75
2022/07/05 05:43:12;;;;;;;11.48;8.05;;;;;;;15.53;81.02;102020.66;4893131;29;20067;-73
2022/07/05 05:45:37;;;;;;;15.80;8.68;;;;;;;15.54;79.77;102022.34;4896549;29;20056;-74
2022/07/05 05:48:03;;;;;;;11.90;8.65;;;;;;;15.57;80.34;102025.44;4881411;29;20032;-74
2022/07/05 05:50:34;;;;;;;9.98;8.45;;;;;;;15.55;79.72;102024.00;4881729;29;20028;-73
2022/07/05 05:53:00;;;;;;;13.25;8.88;;;;;;;15.52;79.83;102019.84;4898923;29;20122;-72
2022/07/05 05:55:27;;;;;;;9.68;8.60;;;;;;;15.59;79.52;102023.31;4898697;29;20528;-71
2022/07/05 05:57:53;;;;;;;13.73;9.48;;;;;;;15.61;79.93;102023.09;4888025;29;20033;-72
2022/07/05 06:00:19;;;;;;;10.85;9.10;;;;;;;15.63;79.81;102031.88;4878372;29;20051;-71
2022/07/05 06:02:47;;;;;;;11.25;8.98;;;;;;;15.67;81.07;102027.63;4859250;29;20052;-73
2022/07/05 06:05:13;;;;;;;11.55;8.55;;;;;;;15.74;79.87;102031.06;4861450;29;20033;-75
2022/07/05 06:07:45;;;;;;;13.50;9.32;;;;;;;15.79;81.96;102026.88;4861196;29;20037;-75
2022/07/05 06:10:10;;;;;;;12.95;9.05;;;;;;;15.83;80.39;102034.34;4878418;29;20633;-75
2022/07/05 06:12:36;;;;;;;15.07;8.40;;;;;;;15.90;79.37;102028.81;4861467;29;20033;-72
2022/07/05 06:15:01;;;;;;;13.88;8.73;;;;;;;15.98;79.81;102036.66;4860949;29;20045;-72
2022/07/05 06:17:26;;;;;;;10.15;8.73;;;;;;;16.02;78.43;102034.28;4859615;29;20466;-71
2022/07/05 06:19:52;;;;;;;13.38;9.20;;;;;;;16.04;78.13;102033.00;4860765;29;20037;-71
2022/07/05 06:22:17;;;;;;;13.70;8.85;;;;;;;16.09;78.68;102046.81;4875093;29;20052;-71
2022/07/05 06:24:42;;;;;;;15.73;9.13;;;;;;;16.12;78.39;102049.06;4879654;29;20033;-71
2022/07/05 06:27:08;;;;;;;13.35;8.68;;;;;;;16.15;79.08;102042.28;4879882;29;20061;-72
2022/07/05 06:29:33;;;;;;;11.85;8.13;;;;;;;16.22;76.99;102043.03;4879237;29;20025;-71
2022/07/05 06:31:59;;;;;;;13.70;7.93;;;;;;;16.26;76.70;102046.13;4859694;29;20111;-71
2022/07/05 06:34:25;;;;;;;11.00;8.00;;;;;;;16.28;77.13;102052.19;4860349;29;20381;-72
2022/07/05 06:36:50;;;;;;;9.60;8.55;;;;;;;16.29;76.17;102051.13;4860842;29;20124;-72
2022/07/05 06:39:16;;;;;;;11.23;8.88;;;;;;;16.29;76.25;102048.41;4844061;29;20117;-71
2022/07/05 06:41:41;;;;;;;12.23;9.35;;;;;;;16.33;77.10;102052.31;4859565;29;20037;-72
2022/07/05 06:44:06;;;;;;;11.38;8.88;;;;;;;16.38;76.60;102052.47;4857123;29;20044;-71
2022/07/05 06:46:32;;;;;;;13.07;8.15;;;;;;;16.42;76.47;102048.16;4842044;29;20125;-71
2022/07/05 06:48:57;;;;;;;10.57;8.45;;;;;;;16.43;76.03;102058.03;4842278;29;20118;-72
2022/07/05 06:51:22;;;;;;;12.40;8.20;;;;;;;16.44;76.16;102059.72;4847550;29;20044;-71
2022/07/05 06:53:47;;;;;;;15.45;9.18;;;;;;;16.45;76.82;102050.44;4858628;29;20042;-71
2022/07/05 06:56:13;;;;;;;15.02;8.63;;;;;;;16.45;77.24;102053.16;4873221;29;20033;-72
2022/07/05 06:58:38;;;;;;;10.82;7.80;;;;;;;16.47;77.49;102052.94;4878885;29;20025;-73
2022/07/05 07:01:03;;;;;;;12.60;8.63;;;;;;;16.54;78.21;102063.75;4871551;29;20120;-71
2022/07/05 07:03:29;;;;;;;9.23;7.88;;;;;;;16.61;78.14;102056.28;4860311;29;20138;-70
2022/07/05 07:05:54;;;;;;;12.07;8.13;;;;;;;16.62;79.57;102053.31;4860476;29;20031;-71
2022/07/05 07:11:03;;;;;;;14.77;7.70;;;;;;;16.89;78.26;102054.78;4859033;29;20094;-72
2022/07/05 07:13:29;;;;;;;13.98;7.90;;;;;;;16.92;77.75;102048.84;4860230;29;20455;-73
2022/07/05 07:15:54;;;;;;;13.73;6.78;;;;;;;16.95;77.32;102065.63;4859344;29;20038;-71
2022/07/05 07:18:19;;;;;;;14.73;7.45;;;;;;;16.98;77.16;102058.81;4843466;29;20033;-73
2022/07/05 07:20:45;;;;;;;14.48;6.97;;;;;;;17.05;78.14;102055.97;4860306;29;20522;-71
2022/07/05 07:23:10;;;;;;;11.73;6.90;;;;;;;17.15;78.02;102062.50;4859316;29;20386;-73
2022/07/05 07:25:35;;;;;;;14.10;6.97;;;;;;;17.21;77.22;102057.97;4860197;29;20030;-72
2022/07/05 07:28:01;;;;;;;11.02;6.70;;;;;;;17.29;77.06;102060.34;4858657;29;20037;-71
2022/07/05 07:30:28;;;;;;;11.80;6.57;;;;;;;17.39;78.82;102058.88;4864757;29;20077;-73
2022/07/05 07:32:54;;;;;;;13.68;6.90;;;;;;;17.44;78.54;102065.31;4881828;29;20031;-73
2022/07/05 07:35:20;;;;;;;12.57;6.20;;;;;;;17.48;77.58;102063.75;4882391;29;20029;-72
2022/07/05 07:37:46;;;;;;;11.35;6.00;;;;;;;17.52;77.73;102072.31;4864312;29;20120;-71
2022/07/05 07:40:12;;;;;;;14.38;6.03;;;;;;;17.57;77.65;102066.09;4882727;29;20452;-71
2022/07/05 07:42:38;;;;;;;18.80;7.47;;;;;;;17.60;77.28;102071.91;4882051;29;20051;-71
2022/07/05 07:45:04;;;;;;;13.68;6.35;;;;;;;17.65;77.91;102077.50;4882531;29;20116;-72
2022/07/05 07:47:30;;;;;;;18.40;6.15;;;;;;;17.70;77.96;102082.25;4882486;29;20044;-72
2022/07/05 07:49:55;;;;;;;15.77;6.05;;;;;;;17.79;77.51;102078.06;4882350;29;20108;-73
2022/07/05 07:52:21;;;;;;;22.45;6.38;;;;;;;17.79;77.27;102078.06;4864240;29;20143;-70
2022/07/05 07:54:46;;;;;;;19.40;6.50;;;;;;;17.81;77.89;102073.16;4882488;29;20093;-71
2022/07/05 07:57:11;;;;;;;15.40;6.07;;;;;;;17.83;77.77;102073.75;4882038;29;20033;-70
2022/07/05 07:59:37;;;;;;;12.57;5.72;;;;;;;17.87;78.08;102074.94;4883523;29;20473;-72
2022/07/05 08:02:02;;;;;;;15.80;6.22;;;;;;;17.94;78.10;102077.56;4898687;29;20029;-72
2022/07/05 08:04:27;;;;;;;17.30;6.25;;;;;;;17.95;78.08;102079.22;4883793;29;20033;-74
2022/07/05 08:06:53;;;;;;;12.52;6.05;;;;;;;18.02;77.97;102081.81;4891716;29;20029;-72
2022/07/05 08:09:18;;;;;;;15.77;6.70;;;;;;;18.11;78.24;102076.75;4882104;29;20037;-72
2022/07/05 08:11:46;;;;;;;14.23;6.90;;;;;;;18.14;77.51;102077.09;4880519;29;20104;-71
2022/07/05 08:14:11;;;;;;;16.50;7.88;;;;;;;18.17;76.51;102079.34;4881691;29;20377;-73
2022/07/05 08:16:37;;;;;;;19.45;8.25;;;;;;;18.17;76.87;102086.75;4864984;29;20036;-74
2022/07/05 08:21:47;;;;;;;14.95;7.45;;;;;;;18.24;76.91;102088.25;4878848;29;20549;-70
2022/07/05 08:24:13;;;;;;;16.40;8.27;;;;;;;18.30;76.85;102088.31;4883456;29;20032;-70
2022/07/05 08:26:40;;;;;;;17.02;8.05;;;;;;;18.34;77.42;102090.34;4900317;29;20473;-73
2022/07/05 08:29:08;;;;;;;18.42;8.52;;;;;;;18.36;77.12;102093.66;4900279;29;20043;-70
2022/07/05 08:31:40;;;;;;;17.25;8.75;;;;;;;18.31;75.73;102087.25;4899582;29;20052;-72
2022/07/05 08:34:05;;;;;;;19.55;9.00;;;;;;;18.30;76.36;102091.06;4883451;29;20032;-72
2022/07/05 08:36:31;;;;;;;17.15;8.68;;;;;;;18.36;76.68;102087.38;4884833;29;20037;-71
2022/07/05 08:38:56;;;;;;;16.52;8.70;;;;;;;18.37;75.74;102081.63;4891534;29;20531;-70
2022/07/05 08:41:23;;;;;;;20.05;8.43;;;;;;;18.39;75.70;102082.22;4883332;29;20091;-71
2022/07/05 08:43:50;;;;;;;15.73;8.68;;;;;;;18.40;75.92;102081.13;4899917;29;20687;-71
2022/07/05 08:46:17;;;;;;;15.32;7.97;;;;;;;18.47;75.93;102080.97;4883229;29;20025;-71
2022/07/05 08:48:46;;;;;;;16.20;7.85;;;;;;;18.45;74.77;102077.66;4899899;29;20517;-72
2022/07/05 08:51:13;;;;;;;13.65;7.03;;;;;;;18.50;73.85;102074.97;4884801;29;20040;-73
2022/07/05 08:53:40;;;;;;;18.38;7.60;;;;;;;18.46;74.12;102073.81;4863570;29;20047;-72
2022/07/05 08:56:08;;;;;;;14.70;7.28;;;;;;;18.41;72.64;102071.00;4863547;29;20462;-73
2022/07/05 08:58:34;;;;;;;10.82;7.00;;;;;;;18.51;73.81;102073.91;4875302;29;20128;-73
2022/07/05 09:01:01;;;;;;;15.38;6.13;;;;;;;18.62;71.34;102076.81;4878856;29;20048;-72
2022/07/05 09:03:37;;;;;;;13.10;6.68;;;;;;;18.77;72.31;102077.06;4888245;29;20116;-73
2022/07/05 09:06:06;;;;;;;11.13;5.57;;;;;;;18.89;69.85;102085.25;4899824;29;20090;-73
2022/07/05 09:08:38;;;;;;;8.13;5.30;;;;;;;18.99;69.31;102081.81;4899224;29;20457;-73
2022/07/05 09:11:04;;;;;;;12.50;5.30;;;;;;;19.04;66.69;102081.91;4892117;29;20037;-72
2022/07/05 09:13:34;;;;;;;11.70;5.03;;;;;;;19.08;66.81;102080.28;4869610;29;20412;-73
2022/07/05 09:16:00;;;;;;;10.68;5.38;;;;;;;19.17;67.29;102084.25;4878891;29;20039;-72
2022/07/05 09:19:04;;;;;;;16.02;5.78;;;;;;;19.27;68.17;102089.88;4864101;29;20037;-73
2022/07/05 09:21:30;;;;;;;9.25;5.85;;;;;;;19.13;66.63;102094.09;4868930;29;20048;-74
2022/07/05 09:24:05;;;;;;;11.95;4.90;;;;;;;19.03;65.90;102088.47;4876389;29;20549;-74
2022/07/05 09:26:39;;;;;;;9.25;4.07;;;;;;;19.08;65.52;102094.84;4879510;29;20040;-76
2022/07/05 09:29:12;;;;;;;9.07;3.80;;;;;;;19.20;65.21;102081.00;4860933;29;20505;-76
2022/07/05 09:31:40;;;;;;;12.15;4.65;;;;;;;19.23;64.20;102085.97;4860237;29;20053;-73
2022/07/05 09:34:10;;;;;;;13.00;5.43;;;;;;;19.29;65.04;102087.75;4861803;29;20489;-71
2022/07/05 09:36:50;;;;;;;10.60;4.60;;;;;;;19.36;65.00;102089.47;4861782;29;20113;-72
2022/07/05 09:39:16;;;;;;;12.88;4.65;;;;;;;19.52;65.32;102083.09;4861950;29;20038;-71
2022/07/05 09:41:41;;;;;;;12.27;4.28;;;;;;;19.64;64.22;102081.03;4864693;29;20029;-72
2022/07/05 09:44:07;;;;;;;12.23;4.80;;;;;;;19.76;63.69;102080.91;4863501;29;20128;-71
2022/07/05 09:46:32;;;;;;;9.60;4.65;;;;;;;19.80;63.39;102071.06;4888484;29;20040;-72
2022/07/05 09:48:58;;;;;;;9.77;4.25;;;;;;;19.88;64.55;102067.03;4898989;29;20569;-72
2022/07/05 09:51:24;;;;;;;7.93;4.13;;;;;;;19.86;57.97;102068.41;4898887;29;20060;-72
2022/07/05 09:53:51;;;;;;;8.13;4.00;;;;;;;19.86;58.02;102069.22;4898190;29;20044;-72
2022/07/05 09:56:19;;;;;;;7.28;3.70;;;;;;;19.78;58.35;102073.25;4898793;29;20036;-72
2022/07/05 09:58:44;;;;;;;10.60;3.60;;;;;;;19.71;59.48;102071.78;4898630;29;20039;-72
2022/07/05 10:01:30;;;;;;;9.27;3.05;;;;;;;19.73;59.14;102064.09;4868064;29;20041;-72
2022/07/05 10:04:03;;;;;;;8.57;3.03;;;;;;;19.70;56.70;102067.34;4861338;29;20377;-72
2022/07/05 10:06:32;;;;;;;10.45;3.70;;;;;;;19.63;56.08;102068.38;4873291;29;20122;-72
2022/07/05 10:08:58;;;;;;;7.60;3.35;;;;;;;19.57;55.76;102071.34;4879915;29;20085;-72
2022/07/05 10:11:29;;;;;;;11.57;3.65;;;;;;;19.56;57.25;102075.97;4879858;29;20120;-71
2022/07/05 10:13:55;;;;;;;9.90;3.78;;;;;;;19.58;57.94;102072.97;4878588;29;20060;-72
2022/07/05 10:16:22;;;;;;;7.95;3.50;;;;;;;19.70;59.07;102086.59;4879839;29;20453;-72
2022/07/05 10:18:52;;;;;;;10.07;4.13;;;;;;;19.71;57.23;102088.25;4879262;29;20497;-72
2022/07/05 10:21:19;;;;;;;9.35;3.85;;;;;;;19.73;57.15;102086.91;4878318;29;20105;-72
2022/07/05 10:23:48;;;;;;;9.38;4.40;;;;;;;19.86;58.81;102085.72;4879576;29;20047;-72
2022/07/05 10:26:15;;;;;;;8.30;4.15;;;;;;;19.90;57.48;102077.78;4869447;29;20059;-73
2022/07/05 10:28:45;;;;;;;7.05;3.50;;;;;;;20.08;56.69;102085.69;4897061;29;20040;-73
2022/07/05 10:31:12;;;;;;;5.78;3.83;;;;;;;20.16;57.20;102081.63;4897607;29;20053;-74
2022/07/05 10:33:39;;;;;;;6.35;3.65;;;;;;;20.26;56.92;102078.97;4887081;29;21907;-73
2022/07/05 10:36:05;;;;;;;7.75;3.40;;;;;;;20.21;55.70;102078.91;4878689;29;20041;-72
2022/07/05 10:38:35;;;;;;;6.85;2.92;;;;;;;20.20;55.72;102080.03;4861829;29;20120;-73
2022/07/05 10:41:04;;;;;;;10.43;2.80;;;;;;;20.15;56.30;102074.47;4878598;29;20036;-71
2022/07/05 10:43:30;;;;;;;5.30;2.40;;;;;;;20.14;54.86;102070.03;4878129;29;20033;-72
2022/07/05 10:45:56;;;;;;;11.25;2.60;;;;;;;20.11;55.66;102067.81;4878103;29;20386;-71
2022/07/05 10:48:23;;;;;;;4.63;2.58;;;;;;;20.28;56.07;102082.28;4884330;29;20037;-72
2022/07/05 10:50:52;;;;;;;7.10;3.08;;;;;;;20.46;56.79;102067.34;4895945;29;20035;-71
2022/07/05 10:53:22;;;;;;;5.43;3.00;;;;;;;20.50;52.69;102068.47;4897149;29;20056;-72
2022/07/05 10:56:11;;;;;;;4.85;2.90;;;;;;;20.58;54.29;102069.06;4896881;29;20088;-73
2022/07/05 10:58:43;;;;;;;6.15;2.47;;;;;;;20.62;54.77;102062.81;4887116;29;20479;-71
2022/07/05 11:01:11;;;;;;;6.43;2.60;;;;;;;20.61;54.65;102068.53;4875638;29;20430;-71
2022/07/05 11:04:00;;;;;;;6.22;2.78;;;;;;;20.56;53.72;102076.75;4876824;29;20044;-72
2022/07/05 11:06:28;;;;;;;8.95;2.42;;;;;;;20.44;52.67;102090.66;4870151;29;20044;-72
2022/07/05 11:08:56;;;;;;;4.47;1.95;;;;;;;20.43;52.65;102089.03;4860668;29;20041;-71
2022/07/05 11:11:32;;;;;;;4.70;2.45;;;;;;;20.40;52.84;102084.88;4878027;29;20037;-72
2022/07/05 11:14:00;;;;;;;5.03;2.08;;;;;;;20.37;53.29;102079.91;4874816;29;20033;-72
2022/07/05 11:16:27;;;;;;;6.72;2.10;;;;;;;20.42;53.18;102081.88;4859473;29;20435;-72
2022/07/05 11:19:03;;;;;;;16.33;2.03;;;;;;;20.47;53.71;102092.91;4859361;29;20048;-73
2022/07/05 11:21:29;;;;;;;6.05;1.90;;;;;;;20.40;52.69;102084.06;4859566;29;20041;-74
2022/07/05 11:24:20;;;;;;;4.22;1.55;;;;;;;20.36;53.71;102092.78;4859112;29;20041;-73